Alpine Airstrip, AK

3:15 PM AKST on March 03, 2015 (GMT -0900)
Deadhorse Alpine Airstrip | Change Station
CLOSE
Current Station
Airport
Location: Deadhorse Alpine Airstrip,
Elevation: 16 ft
Nearby Weather Stations
Active Advisory: Blizzard Warning Active Notice: Public Information Statement

Elev 16 ft 70.34 °N, 150.94 °W | Updated 1 hour ago

Mostly Cloudy
Mostly Cloudy
16 °F
Feels Like 4 °F
N
9
Wind Variable Wind from SSW

Today
High -- | Low -- °F
--% Chance of Precip.
Yesterday
High -- | Low -- °F
Precip. -- in
8:22 AM 6:10 PM
Waxing Gibbous, 97% visible
Pressure 29.61 in
Visibility 10.0 miles
Clouds Few 1400 ft
Mostly Cloudy 4000 ft
Mostly Cloudy 6000 ft
Windchill 4 °F
Dew Point 12 °F
Humidity 86%
Rainfall 0.00 in
Snow Depth Not available.
UV 0 out of 12
Pollen Not available.
Air Quality Not available.
Flu Activity Not available.
METAR PALP 032255Z 20008KT 10SM FEW014 BKN040 BKN060 M09/M11 A2961

More Conditions Fewer Conditions

Pressure 29.61 in
Visibility 10.0 miles
Clouds Few 1400 ft
Mostly Cloudy 4000 ft
Mostly Cloudy 6000 ft
Windchill 4 °F
Dew Point 12 °F
Humidity 86%
Rainfall 0.00 in
Snow Depth Not available.
UV 0 out of 12
Pollen Not available.
Air Quality Not available.
Flu Activity Not available.
METAR PALP 032255Z 20008KT 10SM FEW014 BKN040 BKN060 M09/M11 A2961

More Conditions Fewer Conditions

10-Day Weather Forecast

Almanac

Astronomy

Mar. 03, 2015 Rise Set
Actual Time
Civil Twilight
Nautical Twilight
Astronomical Twilight
Moon
Length of Visible Light
Length of Day
Tomorrow will be .
, % of the Moon is Illuminated

Today's Extremes

State Highs State Lows

Community

WunderPhotos

Upload Photos

1,802,330 photos uploaded!

WunderBlogs® & News

Nearby

Air Quality

  Air Quality AQ Index Pollutant
Not available.

Snow Depth

Station Depth Elevation

Earthquake Activity

City Distance Mag. Time & Date
Minimum magnitude displayed is 2.5.

Coastal Water Temperatures

Place Temperature

Nearby Weather Stations

Blizzard Warning
Statement as of 1:20 PM AKST on March 03, 2015

... Blizzard Warning remains in effect from 9 PM this evening to
6 PM akst Wednesday...

A Blizzard Warning remains in effect from 9 PM this evening to
6 PM akst Wednesday.

* Visibility... reduced in snow and blowing snow to one quarter
mile or less at times.

* Winds... west 25 to 35 mph with gusts to 45 mph.

* Timing... conditions will deteriorate rapidly this evening as the
winds increase.

* Impacts... visibility will be very poor and snow will
accumulate into drifts. Whiteout conditions should be
expected. Travel and outdoor activities will be extremely
difficult.

Precautionary/preparedness actions...

A Blizzard Warning means severe winter weather conditions in
blowing snow with strong winds and very poor visibilities are
occurring or expected.